WetterOnline ( https://www.wetteronline.de )

Wetter aktuell Tuttlingen

Aktuelles Wetter: Klippeneck (975m)

6-stündlich | Neueste Meldungen
Ortszeit Temperatur Wetter
So, 03.03. 19:00 7.0° C wolkig
So, 03.03. 13:00 9.6° C bedeckt
So, 03.03. 7:00 7.1° C bedeckt
So, 03.03. 1:00 5.6° C bedeckt
Sa, 02.03. 19:00 6.7° C bedeckt
Sa, 02.03. 13:00 8.6° C wolkig
Sa, 02.03. 7:00 1.7° C bewölkt
Sa, 02.03. 1:00 3.0° C Nebel
Ortszeit Temperatur Wetter
So, 03.03. 21:00 7.0° C wolkig
So, 03.03. 20:40 7.3° C bedeckt
So, 03.03. 20:30 6.2° C leicht bewölkt
So, 03.03. 20:20 6.2° C leicht bewölkt
So, 03.03. 20:10 6.3° C leicht bewölkt
So, 03.03. 20:00 6.6° C fast wolkenlos
So, 03.03. 19:50 6.6° C fast wolkenlos
So, 03.03. 19:30 7.2° C wolkig
So, 03.03. 19:00 7.0° C wolkig
So, 03.03. 18:30 8.3° C wolkig
So, 03.03. 18:00 9.0° C wolkig
Ortszeit Relative Feuchte Sichtweite
So, 03.03. 19:00 61% 65 km
So, 03.03. 13:00 45% >70 km
So, 03.03. 7:00 54% >70 km
So, 03.03. 1:00 77% 24 km
Sa, 02.03. 19:00 80% 40 km
Sa, 02.03. 13:00 59% >70 km
Sa, 02.03. 7:00 90% 13 km
Sa, 02.03. 1:00 89% 19 km
Ortszeit Relative Feuchte Sichtweite
So, 03.03. 21:00 54% >70 km
So, 03.03. 20:40 54% -
So, 03.03. 20:30 60% 65 km
So, 03.03. 20:20 60% -
So, 03.03. 20:10 61% -
So, 03.03. 20:00 60% 60 km
So, 03.03. 19:50 60% -
So, 03.03. 19:30 60% 65 km
So, 03.03. 19:00 61% 65 km
So, 03.03. 18:30 56% >70 km
So, 03.03. 18:00 52% >70 km
Ortszeit Niederschlagsmenge Niederschlagsart
So, 03.03. 19:00 0.0 l/m2 in 12 Std. -
So, 03.03. 13:00 0.0 l/m2 in 6 Std. -
So, 03.03. 7:00 0.0 l/m2 in 12 Std. -
So, 03.03. 1:00 0.0 l/m2 in 6 Std. -
Sa, 02.03. 19:00 0.0 l/m2 in 12 Std. -
Sa, 02.03. 13:00 0.0 l/m2 in 6 Std. -
Sa, 02.03. 7:00 0.0 l/m2 in 12 Std. -
Sa, 02.03. 1:00 0.0 l/m2 in 6 Std. -
Ortszeit Niederschlagsmenge Niederschlagsart
So, 03.03. 21:00 0.0 l/m2 in 1 Std. -
So, 03.03. 20:40 keine Meldung -
So, 03.03. 20:30 0.0 l/m2 in 30 Min -
So, 03.03. 20:20 keine Meldung -
So, 03.03. 20:10 keine Meldung -
So, 03.03. 20:00 0.0 l/m2 in 1 Std. -
So, 03.03. 19:50 keine Meldung -
So, 03.03. 19:30 0.0 l/m2 in 30 Min -
So, 03.03. 19:00 0.0 l/m2 in 1 Std. -
So, 03.03. 18:30 0.0 l/m2 in 30 Min -
So, 03.03. 18:00 0.0 l/m2 in 1 Std. -
Ortszeit Stärke Spitze Richtung
km/h Bft. km/h Grad Sektor
So, 03.03. 19:00 15 3 33 90° O
So, 03.03. 13:00 25 4 40 120° SO
So, 03.03. 7:00 24 4 31 110° O
So, 03.03. 1:00 24 4 48 110° O
Sa, 02.03. 19:00 33 5 44 90° O
Sa, 02.03. 13:00 7 2 29 110° O
Sa, 02.03. 7:00 15 3 30 140° SO
Sa, 02.03. 1:00 17 3 41 170° S
Ortszeit Stärke Spitze Richtung
km/h Bft. km/h Grad Sektor
So, 03.03. 21:00 7 2 18 130° SO
So, 03.03. 20:40 11 2 - 130° SO
So, 03.03. 20:30 13 3 17 110° O
So, 03.03. 20:20 13 3 - 110° O
So, 03.03. 20:10 14 3 - 100° O
So, 03.03. 20:00 14 3 18 100° O
So, 03.03. 19:50 14 3 - 100° O
So, 03.03. 19:30 14 3 18 100° O
So, 03.03. 19:00 15 3 19 90° O
So, 03.03. 18:30 14 3 18 90° O
So, 03.03. 18:00 14 3 18 90° O
Ortszeit Untergrenze Bedeckung Gattung
total tief tief mittel hoch
So, 03.03. 19:00 7800 m 8/8 0/8 - - -
So, 03.03. 13:00 3300 m 8/8 8/8 - - -
So, 03.03. 7:00 2400 m 8/8 8/8 - - -
So, 03.03. 1:00 3000 m 8/8 8/8 - - -
Sa, 02.03. 19:00 3300 m 8/8 8/8 - - -
Sa, 02.03. 13:00 5400 m 6/8 6/8 - - -
Sa, 02.03. 7:00 5700 m 8/8 7/8 - - -
Sa, 02.03. 1:00 4200 m 8/8 8/8 - - -
Ortszeit Bedeckungsgrad in Achtel und Wolkenuntergrenze
So, 03.03. 21:00 8(7200m)
So, 03.03. 20:40 8
So, 03.03. 20:30 6(7800m)
So, 03.03. 20:20 6(7800m)
So, 03.03. 20:10 4
So, 03.03. 20:00 2(8700m)
So, 03.03. 19:50 2(8700m)
So, 03.03. 19:30 8(8700m)
So, 03.03. 19:00 1(7800m) 8(8700m)
So, 03.03. 18:30 8(7500m) 8(8700m)
So, 03.03. 18:00 7(7200m) 8(7800m)
Ortszeit Stationsdruck (hPa) Tendenz (hPa in 3 Std.)
So, 03.03. 19:00 889 + 1,3
So, 03.03. 13:00 888 - 0,3
So, 03.03. 7:00 888 - 0,5
So, 03.03. 1:00 889 - 0,4
Sa, 02.03. 19:00 890 - 1,2
Sa, 02.03. 13:00 893 - 1,0
Sa, 02.03. 7:00 894 + 0,1
Sa, 02.03. 1:00 894 - 0,7
Ortszeit Stationsdruck (hPa) Tendenz (hPa in 3 Std.)
So, 03.03. 21:00 890 + 2,0
So, 03.03. 20:40 890 keine Meldung
So, 03.03. 20:30 890 + 1,9
So, 03.03. 20:20 890 keine Meldung
So, 03.03. 20:10 890 keine Meldung
So, 03.03. 20:00 890 + 1,8
So, 03.03. 19:50 890 keine Meldung
So, 03.03. 19:30 890 + 1,6
So, 03.03. 19:00 889 + 1,3
So, 03.03. 18:30 889 + 1,2
So, 03.03. 18:00 888 + 1,0
Ortszeit Schneehöhe (cm)
So, 03.03. 19:00 0
So, 03.03. 13:00 0
So, 03.03. 7:00 0
So, 03.03. 1:00 0
Sa, 02.03. 19:00 0
Sa, 02.03. 13:00 0
Sa, 02.03. 7:00 0
Sa, 02.03. 1:00 0
Ortszeit Schneehöhe (cm)
So, 03.03. 21:00 0
So, 03.03. 20:40 -
So, 03.03. 20:30 0
So, 03.03. 20:20 0
So, 03.03. 20:10 -
So, 03.03. 20:00 0
So, 03.03. 19:50 0
So, 03.03. 19:30 0
So, 03.03. 19:00 0
So, 03.03. 18:30 0
So, 03.03. 18:00 0
Link zu dieser Seite / Seite empfehlen

Das Wetter in ...